Las Tablas, New Mexico
Current Conditions -  °F | °C
As of 12:35 PM on Monday 22 Dec 2014 (Local Time) from KSKX Reporting Station
Scattered Clouds Scattered Clouds  
Wind Chill: 32°   Ceiling: Unl
Heat Index: 43°   Visibility: 10mi
Dew Point: 25°   Wind: 30mph
Humidity: 49%   Direction: 280°W
Pressure: 29.66"   Gusts: 41mph
Location:  36.6959°N, 106.135°W
Report Text: KSKX 221935Z AUTO 28026G36KT 10SM SCT110 06/M04 A2966 RMK AO1
Loading
Personal Weather Stations






























Interactive Weather Map New forecast layout! Learn more

10-Day Weather Forecast

Advertisements
Track Severe Weather on mobile